sensor_id;sensor_type;location;lat;lon;timestamp;temperature;humidity
12959;DHT22;6544;51.666;6.634;2023-07-28T00:02:01;18.10;99.90
12959;DHT22;6544;51.666;6.634;2023-07-28T00:04:29;18.10;99.90
12959;DHT22;6544;51.666;6.634;2023-07-28T00:06:56;18.00;99.90
12959;DHT22;6544;51.666;6.634;2023-07-28T00:09:23;18.00;99.90
12959;DHT22;6544;51.666;6.634;2023-07-28T00:11:50;18.10;99.90
12959;DHT22;6544;51.666;6.634;2023-07-28T00:14:17;18.10;99.90
12959;DHT22;6544;51.666;6.634;2023-07-28T00:16:44;18.10;99.90
12959;DHT22;6544;51.666;6.634;2023-07-28T00:19:11;18.10;99.90
12959;DHT22;6544;51.666;6.634;2023-07-28T00:21:39;18.10;99.90
12959;DHT22;6544;51.666;6.634;2023-07-28T00:24:06;18.10;99.90
12959;DHT22;6544;51.666;6.634;2023-07-28T00:26:33;18.10;99.90
12959;DHT22;6544;51.666;6.634;2023-07-28T00:29:00;18.00;99.90
12959;DHT22;6544;51.666;6.634;2023-07-28T00:31:27;17.90;99.90
12959;DHT22;6544;51.666;6.634;2023-07-28T00:33:53;17.90;99.90
12959;DHT22;6544;51.666;6.634;2023-07-28T00:36:20;18.00;99.90
12959;DHT22;6544;51.666;6.634;2023-07-28T00:38:48;18.00;99.90
12959;DHT22;6544;51.666;6.634;2023-07-28T00:41:16;18.00;99.90
12959;DHT22;6544;51.666;6.634;2023-07-28T00:43:42;18.10;99.90
12959;DHT22;6544;51.666;6.634;2023-07-28T00:46:10;18.10;99.90
12959;DHT22;6544;51.666;6.634;2023-07-28T00:48:37;18.10;99.90
12959;DHT22;6544;51.666;6.634;2023-07-28T00:51:05;18.10;99.90
12959;DHT22;6544;51.666;6.634;2023-07-28T00:53:32;18.10;99.90
12959;DHT22;6544;51.666;6.634;2023-07-28T00:56:01;18.10;99.90
12959;DHT22;6544;51.666;6.634;2023-07-28T00:58:29;18.10;99.90
12959;DHT22;6544;51.666;6.634;2023-07-28T01:00:56;18.10;99.90
12959;DHT22;6544;51.666;6.634;2023-07-28T01:03:23;18.10;99.90
12959;DHT22;6544;51.666;6.634;2023-07-28T01:05:58;18.10;99.90
12959;DHT22;6544;51.666;6.634;2023-07-28T01:08:34;18.00;99.90
12959;DHT22;6544;51.666;6.634;2023-07-28T01:11:03;18.10;99.90
12959;DHT22;6544;51.666;6.634;2023-07-28T01:13:30;18.00;99.90
12959;DHT22;6544;51.666;6.634;2023-07-28T01:15:57;18.10;99.90
12959;DHT22;6544;51.666;6.634;2023-07-28T01:18:26;18.10;99.90
12959;DHT22;6544;51.666;6.634;2023-07-28T01:20:56;18.10;99.90
12959;DHT22;6544;51.666;6.634;2023-07-28T01:23:33;18.10;99.90
12959;DHT22;6544;51.666;6.634;2023-07-28T01:26:08;18.10;99.90
12959;DHT22;6544;51.666;6.634;2023-07-28T01:28:38;18.10;99.90
12959;DHT22;6544;51.666;6.634;2023-07-28T01:31:07;18.10;99.90
12959;DHT22;6544;51.666;6.634;2023-07-28T01:33:34;18.00;99.90
12959;DHT22;6544;51.666;6.634;2023-07-28T01:36:01;18.10;99.90
12959;DHT22;6544;51.666;6.634;2023-07-28T01:38:29;18.10;99.90
12959;DHT22;6544;51.666;6.634;2023-07-28T01:40:56;18.10;99.90
12959;DHT22;6544;51.666;6.634;2023-07-28T01:43:23;18.10;99.90
12959;DHT22;6544;51.666;6.634;2023-07-28T01:45:51;18.10;99.90
12959;DHT22;6544;51.666;6.634;2023-07-28T01:48:18;18.10;99.90
12959;DHT22;6544;51.666;6.634;2023-07-28T01:50:45;18.20;99.90
12959;DHT22;6544;51.666;6.634;2023-07-28T01:53:12;18.10;99.90
12959;DHT22;6544;51.666;6.634;2023-07-28T01:55:38;18.00;99.90
12959;DHT22;6544;51.666;6.634;2023-07-28T01:58:05;18.20;99.90
12959;DHT22;6544;51.666;6.634;2023-07-28T02:00:32;18.10;99.90
12959;DHT22;6544;51.666;6.634;2023-07-28T02:03:01;18.10;99.90
12959;DHT22;6544;51.666;6.634;2023-07-28T02:05:28;18.00;99.90
12959;DHT22;6544;51.666;6.634;2023-07-28T02:07:56;18.00;99.90
12959;DHT22;6544;51.666;6.634;2023-07-28T02:10:23;18.00;99.90
12959;DHT22;6544;51.666;6.634;2023-07-28T02:12:50;18.00;99.90
12959;DHT22;6544;51.666;6.634;2023-07-28T02:15:17;18.10;99.90
12959;DHT22;6544;51.666;6.634;2023-07-28T02:17:44;18.10;99.90
12959;DHT22;6544;51.666;6.634;2023-07-28T02:20:12;18.00;99.90
12959;DHT22;6544;51.666;6.634;2023-07-28T02:22:41;17.90;99.90
12959;DHT22;6544;51.666;6.634;2023-07-28T02:25:08;18.00;99.90
12959;DHT22;6544;51.666;6.634;2023-07-28T02:27:35;18.00;99.90
12959;DHT22;6544;51.666;6.634;2023-07-28T02:30:03;18.10;99.90
12959;DHT22;6544;51.666;6.634;2023-07-28T02:32:30;17.90;99.90
12959;DHT22;6544;51.666;6.634;2023-07-28T02:34:57;18.00;99.90
12959;DHT22;6544;51.666;6.634;2023-07-28T02:37:26;18.00;99.90
12959;DHT22;6544;51.666;6.634;2023-07-28T02:39:53;18.10;99.90
12959;DHT22;6544;51.666;6.634;2023-07-28T02:42:20;18.10;99.90
12959;DHT22;6544;51.666;6.634;2023-07-28T02:44:46;18.10;99.90
12959;DHT22;6544;51.666;6.634;2023-07-28T02:47:13;18.20;99.90
12959;DHT22;6544;51.666;6.634;2023-07-28T02:49:41;18.20;99.90
12959;DHT22;6544;51.666;6.634;2023-07-28T02:52:09;18.20;99.90
12959;DHT22;6544;51.666;6.634;2023-07-28T02:54:37;18.20;99.90
12959;DHT22;6544;51.666;6.634;2023-07-28T02:57:04;18.30;99.90
12959;DHT22;6544;51.666;6.634;2023-07-28T02:59:31;18.10;99.90
12959;DHT22;6544;51.666;6.634;2023-07-28T03:01:58;18.10;99.90
12959;DHT22;6544;51.666;6.634;2023-07-28T03:04:25;18.10;99.90
12959;DHT22;6544;51.666;6.634;2023-07-28T03:06:52;18.20;99.90
12959;DHT22;6544;51.666;6.634;2023-07-28T03:09:19;18.20;99.90
12959;DHT22;6544;51.666;6.634;2023-07-28T03:11:47;18.20;99.90
12959;DHT22;6544;51.666;6.634;2023-07-28T03:14:14;18.20;99.90
12959;DHT22;6544;51.666;6.634;2023-07-28T03:16:42;18.20;99.90
12959;DHT22;6544;51.666;6.634;2023-07-28T03:19:09;18.30;99.90
12959;DHT22;6544;51.666;6.634;2023-07-28T03:21:35;18.30;99.90
12959;DHT22;6544;51.666;6.634;2023-07-28T03:24:03;18.20;99.90
12959;DHT22;6544;51.666;6.634;2023-07-28T03:26:30;18.30;99.90
12959;DHT22;6544;51.666;6.634;2023-07-28T03:28:58;18.30;99.90
12959;DHT22;6544;51.666;6.634;2023-07-28T03:31:25;18.40;99.90
12959;DHT22;6544;51.666;6.634;2023-07-28T03:33:52;18.30;99.90
12959;DHT22;6544;51.666;6.634;2023-07-28T03:36:19;18.30;99.90
12959;DHT22;6544;51.666;6.634;2023-07-28T03:38:46;18.30;99.90
12959;DHT22;6544;51.666;6.634;2023-07-28T03:41:13;18.30;99.90
12959;DHT22;6544;51.666;6.634;2023-07-28T03:43:40;18.30;99.90
12959;DHT22;6544;51.666;6.634;2023-07-28T03:46:09;18.20;99.90
12959;DHT22;6544;51.666;6.634;2023-07-28T03:48:36;18.10;99.90
12959;DHT22;6544;51.666;6.634;2023-07-28T03:51:03;18.20;99.90
12959;DHT22;6544;51.666;6.634;2023-07-28T03:53:30;18.20;99.90
12959;DHT22;6544;51.666;6.634;2023-07-28T03:55:56;18.20;99.90
12959;DHT22;6544;51.666;6.634;2023-07-28T03:58:24;18.20;99.90
12959;DHT22;6544;51.666;6.634;2023-07-28T04:00:51;18.10;99.90
12959;DHT22;6544;51.666;6.634;2023-07-28T04:03:20;18.20;99.90
12959;DHT22;6544;51.666;6.634;2023-07-28T04:05:47;18.30;99.90
12959;DHT22;6544;51.666;6.634;2023-07-28T04:08:14;18.30;99.90
12959;DHT22;6544;51.666;6.634;2023-07-28T04:10:40;18.20;99.90
12959;DHT22;6544;51.666;6.634;2023-07-28T04:13:08;18.30;99.90
12959;DHT22;6544;51.666;6.634;2023-07-28T04:15:35;18.30;99.90
12959;DHT22;6544;51.666;6.634;2023-07-28T04:18:02;18.20;99.90
12959;DHT22;6544;51.666;6.634;2023-07-28T04:20:30;18.20;99.90
12959;DHT22;6544;51.666;6.634;2023-07-28T04:22:57;18.20;99.90
12959;DHT22;6544;51.666;6.634;2023-07-28T04:25:24;18.30;99.90
12959;DHT22;6544;51.666;6.634;2023-07-28T04:27:51;18.30;99.90
12959;DHT22;6544;51.666;6.634;2023-07-28T04:30:18;18.30;99.90
12959;DHT22;6544;51.666;6.634;2023-07-28T04:32:44;18.30;99.90
12959;DHT22;6544;51.666;6.634;2023-07-28T04:35:12;18.30;99.90
12959;DHT22;6544;51.666;6.634;2023-07-28T04:37:40;18.20;99.90
12959;DHT22;6544;51.666;6.634;2023-07-28T04:40:08;18.30;99.90
12959;DHT22;6544;51.666;6.634;2023-07-28T04:42:35;18.30;99.90
12959;DHT22;6544;51.666;6.634;2023-07-28T04:45:03;18.40;99.90
12959;DHT22;6544;51.666;6.634;2023-07-28T04:47:30;18.30;77.80
12959;DHT22;6544;51.666;6.634;2023-07-28T04:49:57;18.30;93.00
12959;DHT22;6544;51.666;6.634;2023-07-28T04:52:24;18.30;99.90
12959;DHT22;6544;51.666;6.634;2023-07-28T04:54:52;18.20;99.90
12959;DHT22;6544;51.666;6.634;2023-07-28T04:57:19;18.30;99.90
12959;DHT22;6544;51.666;6.634;2023-07-28T04:59:46;18.40;99.90
12959;DHT22;6544;51.666;6.634;2023-07-28T05:02:13;18.40;99.90
12959;DHT22;6544;51.666;6.634;2023-07-28T05:04:40;18.40;99.90
12959;DHT22;6544;51.666;6.634;2023-07-28T05:07:07;18.40;97.20
12959;DHT22;6544;51.666;6.634;2023-07-28T05:09:34;18.30;66.30
12959;DHT22;6544;51.666;6.634;2023-07-28T05:12:02;18.40;57.80
12959;DHT22;6544;51.666;6.634;2023-07-28T05:14:29;18.40;55.40
12959;DHT22;6544;51.666;6.634;2023-07-28T05:16:56;18.40;58.90
12959;DHT22;6544;51.666;6.634;2023-07-28T05:19:23;18.50;4.50
12959;DHT22;6544;51.666;6.634;2023-07-28T05:21:50;18.50;1.00
12959;DHT22;6544;51.666;6.634;2023-07-28T05:24:17;18.50;1.00
12959;DHT22;6544;51.666;6.634;2023-07-28T05:26:44;18.50;55.20
12959;DHT22;6544;51.666;6.634;2023-07-28T05:29:12;18.30;1.00
12959;DHT22;6544;51.666;6.634;2023-07-28T05:31:39;18.40;63.20
12959;DHT22;6544;51.666;6.634;2023-07-28T05:34:06;18.40;99.90
12959;DHT22;6544;51.666;6.634;2023-07-28T05:36:33;18.40;99.90
12959;DHT22;6544;51.666;6.634;2023-07-28T05:39:00;18.50;42.70
12959;DHT22;6544;51.666;6.634;2023-07-28T05:41:27;18.50;1.00
12959;DHT22;6544;51.666;6.634;2023-07-28T05:43:54;18.50;1.00
12959;DHT22;6544;51.666;6.634;2023-07-28T05:46:23;18.50;99.90
12959;DHT22;6544;51.666;6.634;2023-07-28T05:48:50;18.40;99.90
12959;DHT22;6544;51.666;6.634;2023-07-28T05:51:16;18.50;1.00
12959;DHT22;6544;51.666;6.634;2023-07-28T05:53:43;18.50;1.00
12959;DHT22;6544;51.666;6.634;2023-07-28T05:56:10;18.50;5.00
12959;DHT22;6544;51.666;6.634;2023-07-28T05:58:37;18.50;1.00
12959;DHT22;6544;51.666;6.634;2023-07-28T06:01:04;18.50;1.00
12959;DHT22;6544;51.666;6.634;2023-07-28T06:03:32;18.40;1.00
12959;DHT22;6544;51.666;6.634;2023-07-28T06:05:59;18.40;31.20
12959;DHT22;6544;51.666;6.634;2023-07-28T06:08:26;18.40;83.10
12959;DHT22;6544;51.666;6.634;2023-07-28T06:10:53;18.50;9.00
12959;DHT22;6544;51.666;6.634;2023-07-28T06:13:20;18.50;1.00
12959;DHT22;6544;51.666;6.634;2023-07-28T06:15:47;18.50;1.00
12959;DHT22;6544;51.666;6.634;2023-07-28T06:18:14;18.50;1.00
12959;DHT22;6544;51.666;6.634;2023-07-28T06:20:43;18.60;1.00
12959;DHT22;6544;51.666;6.634;2023-07-28T06:23:11;18.60;1.00
12959;DHT22;6544;51.666;6.634;2023-07-28T06:25:37;18.50;1.00
12959;DHT22;6544;51.666;6.634;2023-07-28T06:28:09;18.50;73.30
12959;DHT22;6544;51.666;6.634;2023-07-28T06:30:36;18.50;41.40
12959;DHT22;6544;51.666;6.634;2023-07-28T06:33:03;18.60;1.00
12959;DHT22;6544;51.666;6.634;2023-07-28T06:35:30;18.50;1.00
12959;DHT22;6544;51.666;6.634;2023-07-28T06:37:59;18.50;1.00
12959;DHT22;6544;51.666;6.634;2023-07-28T06:40:26;18.50;1.00
12959;DHT22;6544;51.666;6.634;2023-07-28T06:42:53;18.60;1.00
12959;DHT22;6544;51.666;6.634;2023-07-28T06:45:20;18.50;1.00
12959;DHT22;6544;51.666;6.634;2023-07-28T06:47:47;18.50;1.00
12959;DHT22;6544;51.666;6.634;2023-07-28T06:50:15;18.50;91.20
12959;DHT22;6544;51.666;6.634;2023-07-28T06:52:42;18.60;89.60
12959;DHT22;6544;51.666;6.634;2023-07-28T06:55:10;18.60;1.00
12959;DHT22;6544;51.666;6.634;2023-07-28T06:57:37;18.60;32.70
12959;DHT22;6544;51.666;6.634;2023-07-28T07:00:04;18.60;15.30
12959;DHT22;6544;51.666;6.634;2023-07-28T07:02:34;18.60;8.70
12959;DHT22;6544;51.666;6.634;2023-07-28T07:05:01;18.70;1.00
12959;DHT22;6544;51.666;6.634;2023-07-28T07:07:28;18.70;1.00
12959;DHT22;6544;51.666;6.634;2023-07-28T07:09:55;18.70;1.00
12959;DHT22;6544;51.666;6.634;2023-07-28T07:12:24;18.70;1.00
12959;DHT22;6544;51.666;6.634;2023-07-28T07:14:51;18.80;99.90
12959;DHT22;6544;51.666;6.634;2023-07-28T07:17:18;18.80;1.00
12959;DHT22;6544;51.666;6.634;2023-07-28T07:19:45;18.80;1.00
12959;DHT22;6544;51.666;6.634;2023-07-28T07:22:14;18.90;99.90
12959;DHT22;6544;51.666;6.634;2023-07-28T07:24:40;18.90;1.00
12959;DHT22;6544;51.666;6.634;2023-07-28T07:27:07;19.00;1.00
12959;DHT22;6544;51.666;6.634;2023-07-28T07:29:37;19.00;1.00
12959;DHT22;6544;51.666;6.634;2023-07-28T07:32:05;19.00;1.00
12959;DHT22;6544;51.666;6.634;2023-07-28T07:34:33;19.00;99.90
12959;DHT22;6544;51.666;6.634;2023-07-28T07:37:02;19.10;45.90
12959;DHT22;6544;51.666;6.634;2023-07-28T07:39:29;19.10;1.00
12959;DHT22;6544;51.666;6.634;2023-07-28T07:41:57;19.20;1.00
12959;DHT22;6544;51.666;6.634;2023-07-28T07:44:24;19.20;99.90
12959;DHT22;6544;51.666;6.634;2023-07-28T07:46:52;19.20;1.00
12959;DHT22;6544;51.666;6.634;2023-07-28T07:49:19;19.20;99.90
12959;DHT22;6544;51.666;6.634;2023-07-28T07:51:46;19.20;1.00
12959;DHT22;6544;51.666;6.634;2023-07-28T07:54:15;19.30;99.90
12959;DHT22;6544;51.666;6.634;2023-07-28T07:56:44;19.30;1.00
12959;DHT22;6544;51.666;6.634;2023-07-28T07:59:12;19.40;1.00
12959;DHT22;6544;51.666;6.634;2023-07-28T08:01:42;19.40;1.00
12959;DHT22;6544;51.666;6.634;2023-07-28T08:04:11;19.50;99.90
12959;DHT22;6544;51.666;6.634;2023-07-28T08:06:38;19.50;13.60
12959;DHT22;6544;51.666;6.634;2023-07-28T08:09:05;19.40;1.00
12959;DHT22;6544;51.666;6.634;2023-07-28T08:11:33;19.40;99.90
12959;DHT22;6544;51.666;6.634;2023-07-28T08:14:00;19.40;99.90
12959;DHT22;6544;51.666;6.634;2023-07-28T08:16:27;19.50;99.90
12959;DHT22;6544;51.666;6.634;2023-07-28T08:18:54;19.50;1.00
12959;DHT22;6544;51.666;6.634;2023-07-28T08:21:23;19.40;1.00
12959;DHT22;6544;51.666;6.634;2023-07-28T08:23:50;19.50;1.00
12959;DHT22;6544;51.666;6.634;2023-07-28T08:26:19;19.50;1.00
12959;DHT22;6544;51.666;6.634;2023-07-28T08:28:49;19.60;99.90
12959;DHT22;6544;51.666;6.634;2023-07-28T08:31:16;19.50;99.90
12959;DHT22;6544;51.666;6.634;2023-07-28T08:33:45;19.50;1.00
12959;DHT22;6544;51.666;6.634;2023-07-28T08:36:12;19.50;1.00
12959;DHT22;6544;51.666;6.634;2023-07-28T08:38:41;19.60;1.00
12959;DHT22;6544;51.666;6.634;2023-07-28T08:41:08;19.60;99.90
12959;DHT22;6544;51.666;6.634;2023-07-28T08:43:35;19.70;99.90
12959;DHT22;6544;51.666;6.634;2023-07-28T08:46:02;19.80;99.90
12959;DHT22;6544;51.666;6.634;2023-07-28T08:48:29;19.80;47.10
12959;DHT22;6544;51.666;6.634;2023-07-28T08:50:56;19.80;1.00
12959;DHT22;6544;51.666;6.634;2023-07-28T08:53:24;19.80;1.00
12959;DHT22;6544;51.666;6.634;2023-07-28T08:55:53;19.80;1.00
12959;DHT22;6544;51.666;6.634;2023-07-28T08:58:21;19.80;1.00
12959;DHT22;6544;51.666;6.634;2023-07-28T09:00:50;20.00;1.00
12959;DHT22;6544;51.666;6.634;2023-07-28T09:03:18;20.00;1.00
12959;DHT22;6544;51.666;6.634;2023-07-28T09:05:46;20.10;1.00
12959;DHT22;6544;51.666;6.634;2023-07-28T09:08:14;20.20;1.00
12959;DHT22;6544;51.666;6.634;2023-07-28T09:10:42;20.20;1.00
12959;DHT22;6544;51.666;6.634;2023-07-28T09:13:11;20.30;1.00
12959;DHT22;6544;51.666;6.634;2023-07-28T09:15:39;20.40;1.00
12959;DHT22;6544;51.666;6.634;2023-07-28T09:18:08;20.40;1.00
12959;DHT22;6544;51.666;6.634;2023-07-28T09:20:40;20.40;99.90
12959;DHT22;6544;51.666;6.634;2023-07-28T09:23:08;20.40;99.90
12959;DHT22;6544;51.666;6.634;2023-07-28T09:25:36;20.40;99.90
12959;DHT22;6544;51.666;6.634;2023-07-28T09:28:04;20.50;99.90
12959;DHT22;6544;51.666;6.634;2023-07-28T09:30:46;20.60;99.90
12959;DHT22;6544;51.666;6.634;2023-07-28T09:33:13;20.60;99.90
12959;DHT22;6544;51.666;6.634;2023-07-28T09:35:49;20.60;99.90
12959;DHT22;6544;51.666;6.634;2023-07-28T09:38:18;20.60;99.90
12959;DHT22;6544;51.666;6.634;2023-07-28T09:40:46;20.80;99.90
12959;DHT22;6544;51.666;6.634;2023-07-28T09:43:14;20.90;99.90
12959;DHT22;6544;51.666;6.634;2023-07-28T09:45:43;20.90;99.90
12959;DHT22;6544;51.666;6.634;2023-07-28T09:48:13;21.00;99.90
12959;DHT22;6544;51.666;6.634;2023-07-28T09:50:41;21.20;1.00
12959;DHT22;6544;51.666;6.634;2023-07-28T09:53:10;21.20;1.00
12959;DHT22;6544;51.666;6.634;2023-07-28T09:55:39;21.30;1.00
12959;DHT22;6544;51.666;6.634;2023-07-28T09:58:09;21.40;1.00
12959;DHT22;6544;51.666;6.634;2023-07-28T10:00:37;21.30;1.00
12959;DHT22;6544;51.666;6.634;2023-07-28T10:03:06;21.40;1.00
12959;DHT22;6544;51.666;6.634;2023-07-28T10:05:34;21.50;1.00
12959;DHT22;6544;51.666;6.634;2023-07-28T10:08:02;21.50;1.00
12959;DHT22;6544;51.666;6.634;2023-07-28T10:10:33;21.50;1.00
12959;DHT22;6544;51.666;6.634;2023-07-28T10:13:00;21.70;1.00
12959;DHT22;6544;51.666;6.634;2023-07-28T10:15:32;21.70;1.00
12959;DHT22;6544;51.666;6.634;2023-07-28T10:18:00;21.70;1.00
12959;DHT22;6544;51.666;6.634;2023-07-28T10:20:30;21.80;1.00
12959;DHT22;6544;51.666;6.634;2023-07-28T10:23:06;21.90;1.00
12959;DHT22;6544;51.666;6.634;2023-07-28T10:25:35;21.90;99.90
12959;DHT22;6544;51.666;6.634;2023-07-28T10:28:03;22.00;1.00
12959;DHT22;6544;51.666;6.634;2023-07-28T10:30:35;22.00;99.90
12959;DHT22;6544;51.666;6.634;2023-07-28T10:33:04;22.00;1.00
12959;DHT22;6544;51.666;6.634;2023-07-28T10:35:32;22.00;1.00
12959;DHT22;6544;51.666;6.634;2023-07-28T10:38:30;22.10;1.00
12959;DHT22;6544;51.666;6.634;2023-07-28T10:41:13;22.20;1.00
12959;DHT22;6544;51.666;6.634;2023-07-28T10:43:41;22.30;1.00
12959;DHT22;6544;51.666;6.634;2023-07-28T10:46:09;22.40;1.00
12959;DHT22;6544;51.666;6.634;2023-07-28T10:48:37;22.60;1.00
12959;DHT22;6544;51.666;6.634;2023-07-28T10:51:09;22.60;99.90
12959;DHT22;6544;51.666;6.634;2023-07-28T10:53:37;22.50;99.90
12959;DHT22;6544;51.666;6.634;2023-07-28T10:56:04;22.50;99.90
12959;DHT22;6544;51.666;6.634;2023-07-28T10:58:34;22.50;99.90
12959;DHT22;6544;51.666;6.634;2023-07-28T11:01:03;22.40;99.90
12959;DHT22;6544;51.666;6.634;2023-07-28T11:03:30;22.50;99.90
12959;DHT22;6544;51.666;6.634;2023-07-28T11:05:57;22.50;99.90
12959;DHT22;6544;51.666;6.634;2023-07-28T11:08:26;22.40;99.90
12959;DHT22;6544;51.666;6.634;2023-07-28T11:10:53;22.10;99.90
12959;DHT22;6544;51.666;6.634;2023-07-28T11:13:22;22.30;1.00
12959;DHT22;6544;51.666;6.634;2023-07-28T11:15:51;22.30;99.90
12959;DHT22;6544;51.666;6.634;2023-07-28T11:18:17;22.10;99.90
12959;DHT22;6544;51.666;6.634;2023-07-28T11:20:44;22.30;99.90
12959;DHT22;6544;51.666;6.634;2023-07-28T11:23:14;22.50;99.90
12959;DHT22;6544;51.666;6.634;2023-07-28T11:25:43;22.60;99.90
12959;DHT22;6544;51.666;6.634;2023-07-28T11:28:13;22.70;99.90
12959;DHT22;6544;51.666;6.634;2023-07-28T11:30:40;22.80;99.90
12959;DHT22;6544;51.666;6.634;2023-07-28T11:33:09;22.80;99.90
12959;DHT22;6544;51.666;6.634;2023-07-28T11:35:38;22.80;99.90
12959;DHT22;6544;51.666;6.634;2023-07-28T11:38:06;22.80;99.90
12959;DHT22;6544;51.666;6.634;2023-07-28T11:40:36;23.00;99.90
12959;DHT22;6544;51.666;6.634;2023-07-28T11:43:05;23.00;99.90
12959;DHT22;6544;51.666;6.634;2023-07-28T11:45:32;23.00;99.90
12959;DHT22;6544;51.666;6.634;2023-07-28T11:48:02;23.10;99.90
12959;DHT22;6544;51.666;6.634;2023-07-28T11:50:35;23.10;99.90
12959;DHT22;6544;51.666;6.634;2023-07-28T11:53:02;23.10;99.90
12959;DHT22;6544;51.666;6.634;2023-07-28T11:55:30;23.10;99.90
12959;DHT22;6544;51.666;6.634;2023-07-28T11:57:57;23.00;99.90
12959;DHT22;6544;51.666;6.634;2023-07-28T12:00:32;23.10;99.90
12959;DHT22;6544;51.666;6.634;2023-07-28T12:03:02;23.20;99.90
12959;DHT22;6544;51.666;6.634;2023-07-28T12:05:30;23.30;99.90
12959;DHT22;6544;51.666;6.634;2023-07-28T12:07:57;23.20;99.90
12959;DHT22;6544;51.666;6.634;2023-07-28T12:10:24;23.40;99.90
12959;DHT22;6544;51.666;6.634;2023-07-28T12:12:51;23.50;99.90
12959;DHT22;6544;51.666;6.634;2023-07-28T12:15:23;23.70;1.00
12959;DHT22;6544;51.666;6.634;2023-07-28T12:18:08;23.70;93.30
12959;DHT22;6544;51.666;6.634;2023-07-28T12:20:36;23.90;17.60
12959;DHT22;6544;51.666;6.634;2023-07-28T12:23:04;24.00;1.00
12959;DHT22;6544;51.666;6.634;2023-07-28T12:25:31;24.00;1.00
12959;DHT22;6544;51.666;6.634;2023-07-28T12:27:58;24.00;1.00
12959;DHT22;6544;51.666;6.634;2023-07-28T12:30:25;24.20;1.00
12959;DHT22;6544;51.666;6.634;2023-07-28T12:32:52;24.20;1.00
12959;DHT22;6544;51.666;6.634;2023-07-28T12:35:21;24.40;1.00
12959;DHT22;6544;51.666;6.634;2023-07-28T12:37:49;24.50;1.00
12959;DHT22;6544;51.666;6.634;2023-07-28T12:40:16;24.70;1.00
12959;DHT22;6544;51.666;6.634;2023-07-28T12:42:44;24.80;1.00
12959;DHT22;6544;51.666;6.634;2023-07-28T12:45:11;24.80;1.00
12959;DHT22;6544;51.666;6.634;2023-07-28T12:47:38;24.90;1.00
12959;DHT22;6544;51.666;6.634;2023-07-28T12:50:06;25.00;1.00
12959;DHT22;6544;51.666;6.634;2023-07-28T12:52:34;25.30;1.00
12959;DHT22;6544;51.666;6.634;2023-07-28T12:55:01;25.40;1.00
12959;DHT22;6544;51.666;6.634;2023-07-28T12:57:28;25.60;1.00
12959;DHT22;6544;51.666;6.634;2023-07-28T12:59:55;25.70;1.00
12959;DHT22;6544;51.666;6.634;2023-07-28T13:02:22;25.60;1.00
12959;DHT22;6544;51.666;6.634;2023-07-28T13:04:49;25.80;1.00
12959;DHT22;6544;51.666;6.634;2023-07-28T13:07:16;25.70;1.00
12959;DHT22;6544;51.666;6.634;2023-07-28T13:09:44;25.80;1.00
12959;DHT22;6544;51.666;6.634;2023-07-28T13:12:12;26.00;1.00
12959;DHT22;6544;51.666;6.634;2023-07-28T13:14:39;26.20;1.00
12959;DHT22;6544;51.666;6.634;2023-07-28T13:17:06;26.20;1.00
12959;DHT22;6544;51.666;6.634;2023-07-28T13:19:33;26.00;1.00
12959;DHT22;6544;51.666;6.634;2023-07-28T13:22:00;26.00;1.00
12959;DHT22;6544;51.666;6.634;2023-07-28T13:24:27;26.10;1.00
12959;DHT22;6544;51.666;6.634;2023-07-28T13:26:55;25.90;1.00
12959;DHT22;6544;51.666;6.634;2023-07-28T13:29:22;26.20;1.00
12959;DHT22;6544;51.666;6.634;2023-07-28T13:31:49;26.10;1.00
12959;DHT22;6544;51.666;6.634;2023-07-28T13:34:16;26.10;1.00
12959;DHT22;6544;51.666;6.634;2023-07-28T13:36:43;26.00;1.00
12959;DHT22;6544;51.666;6.634;2023-07-28T13:39:10;26.00;1.00
12959;DHT22;6544;51.666;6.634;2023-07-28T13:41:37;26.10;1.00
12959;DHT22;6544;51.666;6.634;2023-07-28T13:44:05;25.80;1.00
12959;DHT22;6544;51.666;6.634;2023-07-28T13:46:32;25.70;1.00
12959;DHT22;6544;51.666;6.634;2023-07-28T13:48:59;25.50;1.00
12959;DHT22;6544;51.666;6.634;2023-07-28T13:51:26;25.60;1.00
12959;DHT22;6544;51.666;6.634;2023-07-28T13:53:53;25.10;1.00
12959;DHT22;6544;51.666;6.634;2023-07-28T13:56:20;25.40;1.00
12959;DHT22;6544;51.666;6.634;2023-07-28T13:58:47;25.40;1.00
12959;DHT22;6544;51.666;6.634;2023-07-28T14:01:16;25.10;1.00
12959;DHT22;6544;51.666;6.634;2023-07-28T14:03:42;25.20;1.00
12959;DHT22;6544;51.666;6.634;2023-07-28T14:06:09;24.90;1.00
12959;DHT22;6544;51.666;6.634;2023-07-28T14:08:36;24.60;1.00
12959;DHT22;6544;51.666;6.634;2023-07-28T14:11:03;24.70;1.00
12959;DHT22;6544;51.666;6.634;2023-07-28T14:13:30;24.70;1.00
12959;DHT22;6544;51.666;6.634;2023-07-28T14:15:58;24.80;1.00
12959;DHT22;6544;51.666;6.634;2023-07-28T14:18:27;24.90;1.00
12959;DHT22;6544;51.666;6.634;2023-07-28T14:20:53;24.90;1.00
12959;DHT22;6544;51.666;6.634;2023-07-28T14:23:22;24.90;1.00
12959;DHT22;6544;51.666;6.634;2023-07-28T14:25:49;25.00;1.00
12959;DHT22;6544;51.666;6.634;2023-07-28T14:28:17;25.20;1.00
12959;DHT22;6544;51.666;6.634;2023-07-28T14:30:44;25.30;1.00
12959;DHT22;6544;51.666;6.634;2023-07-28T14:33:12;25.40;1.00
12959;DHT22;6544;51.666;6.634;2023-07-28T14:35:41;25.40;1.00
12959;DHT22;6544;51.666;6.634;2023-07-28T14:38:08;25.30;1.00
12959;DHT22;6544;51.666;6.634;2023-07-28T14:40:35;25.10;1.00
12959;DHT22;6544;51.666;6.634;2023-07-28T14:43:03;25.00;1.00
12959;DHT22;6544;51.666;6.634;2023-07-28T14:45:30;25.10;1.00
12959;DHT22;6544;51.666;6.634;2023-07-28T14:47:57;25.00;1.00
12959;DHT22;6544;51.666;6.634;2023-07-28T14:50:24;24.80;1.00
12959;DHT22;6544;51.666;6.634;2023-07-28T14:52:52;25.00;1.00
12959;DHT22;6544;51.666;6.634;2023-07-28T14:55:19;25.00;1.00
12959;DHT22;6544;51.666;6.634;2023-07-28T14:57:46;25.20;1.00
12959;DHT22;6544;51.666;6.634;2023-07-28T15:00:13;25.10;1.00
12959;DHT22;6544;51.666;6.634;2023-07-28T15:02:40;25.30;1.00
12959;DHT22;6544;51.666;6.634;2023-07-28T15:05:07;25.30;1.00
12959;DHT22;6544;51.666;6.634;2023-07-28T15:07:34;25.30;1.00
12959;DHT22;6544;51.666;6.634;2023-07-28T15:10:03;25.20;1.00
12959;DHT22;6544;51.666;6.634;2023-07-28T15:12:31;25.20;1.00
12959;DHT22;6544;51.666;6.634;2023-07-28T15:14:58;25.20;1.00
12959;DHT22;6544;51.666;6.634;2023-07-28T15:17:25;25.10;1.00
12959;DHT22;6544;51.666;6.634;2023-07-28T15:19:51;25.20;1.00
12959;DHT22;6544;51.666;6.634;2023-07-28T15:22:18;25.20;1.00
12959;DHT22;6544;51.666;6.634;2023-07-28T15:24:45;25.20;1.00
12959;DHT22;6544;51.666;6.634;2023-07-28T15:27:14;25.30;1.00
12959;DHT22;6544;51.666;6.634;2023-07-28T15:29:40;25.20;1.00
12959;DHT22;6544;51.666;6.634;2023-07-28T15:32:07;25.20;1.00
12959;DHT22;6544;51.666;6.634;2023-07-28T15:34:34;25.20;1.00
12959;DHT22;6544;51.666;6.634;2023-07-28T15:37:01;25.30;1.00
12959;DHT22;6544;51.666;6.634;2023-07-28T15:39:29;25.30;1.00
12959;DHT22;6544;51.666;6.634;2023-07-28T15:41:56;25.10;1.00
12959;DHT22;6544;51.666;6.634;2023-07-28T15:44:24;24.90;1.00
12959;DHT22;6544;51.666;6.634;2023-07-28T15:46:51;24.70;1.00
12959;DHT22;6544;51.666;6.634;2023-07-28T15:49:18;24.60;1.00
12959;DHT22;6544;51.666;6.634;2023-07-28T15:51:45;24.60;1.00
12959;DHT22;6544;51.666;6.634;2023-07-28T15:54:12;24.50;1.00
12959;DHT22;6544;51.666;6.634;2023-07-28T15:56:39;24.40;1.00